createdAt,value
2019-03-15T00:01:50.919Z,2.90
2019-03-15T00:04:19.501Z,2.35
2019-03-15T00:06:50.323Z,2.80
2019-03-15T00:09:18.790Z,1.98
2019-03-15T00:11:47.348Z,2.65
2019-03-15T00:14:15.876Z,2.45
2019-03-15T00:16:47.273Z,2.52
2019-03-15T00:19:15.746Z,2.85
2019-03-15T00:21:44.290Z,2.37
2019-03-15T00:24:14.405Z,2.33
2019-03-15T00:26:42.918Z,2.12
2019-03-15T00:29:11.395Z,2.55
2019-03-15T00:31:39.883Z,2.40
2019-03-15T00:34:09.634Z,2.50
2019-03-15T00:36:38.116Z,2.17
2019-03-15T00:39:07.068Z,2.40
2019-03-15T00:41:35.694Z,1.70
2019-03-15T00:44:04.349Z,1.60
2019-03-15T00:46:32.981Z,2.08
2019-03-15T00:49:01.488Z,2.25
2019-03-15T00:51:30.090Z,2.47
2019-03-15T00:54:01.142Z,2.12
2019-03-15T00:56:29.725Z,2.50
2019-03-15T00:58:58.380Z,2.02
2019-03-15T01:01:26.884Z,1.67
2019-03-15T01:03:55.529Z,2.15
2019-03-15T01:06:24.017Z,2.37
2019-03-15T01:08:52.571Z,2.22
2019-03-15T01:11:21.024Z,2.25
2019-03-15T01:13:49.518Z,1.95
2019-03-15T01:16:17.970Z,2.12
2019-03-15T01:18:46.503Z,2.50
2019-03-15T01:21:14.957Z,2.22
2019-03-15T01:23:46.368Z,2.65
2019-03-15T01:26:14.851Z,2.75
2019-03-15T01:28:43.326Z,2.52
2019-03-15T01:31:11.823Z,2.27
2019-03-15T01:33:40.371Z,2.77
2019-03-15T01:36:08.910Z,2.95
2019-03-15T01:38:37.371Z,3.08
2019-03-15T01:41:07.643Z,2.85
2019-03-15T01:43:36.107Z,2.87
2019-03-15T01:46:06.215Z,2.60
2019-03-15T01:48:35.625Z,2.50
2019-03-15T01:51:10.523Z,2.15
2019-03-15T01:53:39.021Z,2.17
2019-03-15T01:56:07.501Z,2.25
2019-03-15T01:58:35.957Z,2.58
2019-03-15T02:01:04.765Z,2.10
2019-03-15T02:03:33.229Z,3.92
2019-03-15T02:06:01.712Z,2.72
2019-03-15T02:08:30.183Z,3.20
2019-03-15T02:10:59.534Z,3.10
2019-03-15T02:13:28.005Z,2.95
2019-03-15T02:15:56.463Z,2.12
2019-03-15T02:18:24.942Z,2.50
2019-03-15T02:20:54.577Z,2.72
2019-03-15T02:23:23.554Z,2.55
2019-03-15T02:25:52.085Z,2.10
2019-03-15T02:28:21.049Z,3.12
2019-03-15T02:30:49.640Z,2.47
2019-03-15T02:33:18.097Z,2.77
2019-03-15T02:35:47.233Z,2.20
2019-03-15T02:38:15.842Z,2.67
2019-03-15T02:40:44.412Z,2.70
2019-03-15T02:43:14.481Z,3.10
2019-03-15T02:45:42.955Z,2.60
2019-03-15T02:48:11.437Z,3.08
2019-03-15T02:50:41.012Z,2.27
2019-03-15T02:53:09.975Z,2.62
2019-03-15T02:55:38.493Z,3.42
2019-03-15T02:58:06.970Z,2.25
2019-03-15T03:00:35.426Z,2.17
2019-03-15T03:03:03.941Z,2.83
2019-03-15T03:05:33.599Z,2.52
2019-03-15T03:08:02.750Z,2.08
2019-03-15T03:10:32.779Z,2.12
2019-03-15T03:13:01.304Z,1.75
2019-03-15T03:15:30.264Z,2.77
2019-03-15T03:17:58.839Z,2.60
2019-03-15T03:20:27.334Z,2.75
2019-03-15T03:22:55.785Z,2.37
2019-03-15T03:25:25.985Z,2.27
2019-03-15T03:27:54.443Z,2.35
2019-03-15T03:30:23.132Z,2.15
2019-03-15T03:32:51.662Z,2.25
2019-03-15T03:35:20.409Z,2.75
2019-03-15T03:37:49.041Z,2.40
2019-03-15T03:40:20.007Z,2.20
2019-03-15T03:42:47.906Z,2.27
2019-03-15T03:45:16.570Z,2.37
2019-03-15T03:47:45.095Z,2.40
2019-03-15T03:50:13.752Z,2.22
2019-03-15T03:52:42.224Z,2.05
2019-03-15T03:55:10.971Z,3.33
2019-03-15T03:57:40.306Z,1.82
2019-03-15T04:00:14.606Z,2.10
2019-03-15T04:02:44.750Z,2.58
2019-03-15T04:05:13.410Z,1.87
2019-03-15T04:07:45.104Z,2.70
2019-03-15T04:10:15.272Z,2.37
2019-03-15T04:12:45.268Z,2.05
2019-03-15T04:15:14.008Z,2.40
2019-03-15T04:17:42.657Z,1.72
2019-03-15T04:20:12.837Z,2.10
2019-03-15T04:22:41.338Z,2.15
2019-03-15T04:25:13.914Z,3.40
2019-03-15T04:27:42.385Z,2.92
2019-03-15T04:30:13.489Z,2.33
2019-03-15T04:32:41.952Z,2.70
2019-03-15T04:35:10.683Z,2.45
2019-03-15T04:37:39.462Z,2.33
2019-03-15T04:40:12.743Z,2.60
2019-03-15T04:42:41.330Z,2.20
2019-03-15T04:45:09.956Z,2.80
2019-03-15T04:47:38.498Z,2.45
2019-03-15T04:50:07.859Z,2.22
2019-03-15T04:52:38.716Z,2.25
2019-03-15T04:55:07.918Z,2.72
2019-03-15T04:57:36.994Z,3.15
2019-03-15T05:00:11.592Z,2.75
2019-03-15T05:05:11.201Z,4.08
2019-03-15T05:07:39.710Z,4.08
2019-03-15T05:10:09.839Z,4.08
2019-03-15T05:12:38.736Z,4.72
2019-03-15T05:15:09.490Z,4.87
2019-03-15T05:17:38.002Z,5.00
2019-03-15T05:20:08.935Z,4.62
2019-03-15T05:22:37.487Z,5.85
2019-03-15T05:25:07.393Z,4.97
2019-03-15T05:27:35.945Z,6.12
2019-03-15T05:30:06.774Z,5.40
2019-03-15T05:32:35.252Z,7.30
2019-03-15T05:35:04.406Z,6.80
2019-03-15T05:37:32.877Z,6.20
2019-03-15T05:40:02.376Z,7.00
2019-03-15T05:42:31.855Z,6.47
2019-03-15T05:45:00.439Z,7.10
2019-03-15T05:47:28.873Z,5.80
2019-03-15T05:49:57.395Z,6.45
2019-03-15T05:52:27.503Z,6.28
2019-03-15T05:54:56.003Z,5.53
2019-03-15T05:57:24.475Z,5.35
2019-03-15T05:59:52.990Z,4.80
2019-03-15T06:02:28.448Z,5.95
2019-03-15T06:04:56.246Z,5.67
2019-03-15T06:07:24.718Z,5.12
2019-03-15T06:09:53.224Z,5.83
2019-03-15T06:12:23.245Z,5.12
2019-03-15T06:14:51.703Z,5.87
2019-03-15T06:17:20.172Z,6.22
2019-03-15T06:19:48.648Z,5.47
2019-03-15T06:22:17.111Z,5.90
2019-03-15T06:24:45.570Z,5.95
2019-03-15T06:27:14.104Z,5.47
2019-03-15T06:29:42.506Z,7.30
2019-03-15T06:32:11.392Z,6.22
2019-03-15T06:34:40.212Z,6.72
2019-03-15T06:37:08.670Z,7.85
2019-03-15T06:39:37.657Z,6.97
2019-03-15T06:42:09.612Z,6.67
2019-03-15T06:44:38.017Z,6.80
2019-03-15T06:47:06.542Z,7.28
2019-03-15T06:49:35.015Z,8.58
2019-03-15T06:52:03.462Z,7.47
2019-03-15T06:54:33.634Z,9.15
2019-03-15T06:57:02.110Z,9.53
2019-03-15T06:59:30.578Z,8.73
2019-03-15T07:01:59.051Z,7.47
2019-03-15T07:04:31.146Z,7.85
2019-03-15T07:06:59.573Z,7.90
2019-03-15T07:09:30.788Z,8.25
2019-03-15T07:12:08.927Z,8.63
2019-03-15T07:14:28.480Z,8.78
2019-03-15T07:16:56.931Z,8.68
2019-03-15T07:19:30.026Z,8.08
2019-03-15T07:21:58.618Z,8.38
2019-03-15T07:24:27.108Z,8.23
2019-03-15T07:26:55.577Z,8.65
2019-03-15T07:29:24.131Z,7.72
2019-03-15T07:31:52.606Z,9.83
2019-03-15T07:34:21.087Z,9.00
2019-03-15T07:36:49.570Z,8.90
2019-03-15T07:39:18.041Z,9.93
2019-03-15T07:41:46.816Z,9.20
2019-03-15T07:44:15.294Z,9.00
2019-03-15T07:46:43.804Z,7.65
2019-03-15T07:49:23.712Z,7.70
2019-03-15T07:51:52.575Z,7.22
2019-03-15T07:54:23.707Z,7.10
2019-03-15T07:56:52.241Z,6.42
2019-03-15T07:59:20.708Z,7.33
2019-03-15T08:01:49.190Z,7.30
2019-03-15T08:04:18.169Z,8.03
2019-03-15T08:06:46.647Z,8.68
2019-03-15T08:09:15.119Z,7.33
2019-03-15T08:11:43.613Z,7.87
2019-03-15T08:14:12.090Z,8.35
2019-03-15T08:16:40.665Z,8.98
2019-03-15T08:19:11.765Z,9.63
2019-03-15T08:21:40.237Z,9.38
2019-03-15T08:24:08.782Z,9.58
2019-03-15T08:26:37.263Z,9.88
2019-03-15T08:29:09.418Z,12.07
2019-03-15T08:31:36.367Z,11.10
2019-03-15T08:34:05.050Z,10.70
2019-03-15T08:36:33.591Z,12.00
2019-03-15T08:39:02.063Z,12.70
2019-03-15T08:41:30.609Z,13.22
2019-03-15T08:43:59.095Z,13.10
2019-03-15T08:46:27.558Z,12.58
2019-03-15T08:48:56.041Z,11.35
2019-03-15T08:51:24.996Z,12.63
2019-03-15T08:53:53.532Z,12.78
2019-03-15T08:56:22.027Z,11.90
2019-03-15T08:58:50.598Z,13.83
2019-03-15T09:01:19.139Z,12.63
2019-03-15T09:03:47.690Z,13.80
2019-03-15T09:06:16.285Z,13.03
2019-03-15T09:08:51.158Z,14.35
2019-03-15T09:11:19.775Z,14.07
2019-03-15T09:13:49.362Z,14.13
2019-03-15T09:16:19.397Z,15.08
2019-03-15T09:18:49.453Z,14.07
2019-03-15T09:21:17.947Z,14.40
2019-03-15T09:23:46.443Z,14.05
2019-03-15T09:26:14.936Z,15.08
2019-03-15T09:28:43.903Z,13.58
2019-03-15T09:31:12.464Z,13.62
2019-03-15T09:33:44.065Z,12.68
2019-03-15T09:36:12.567Z,13.60
2019-03-15T09:38:41.112Z,12.95
2019-03-15T09:41:09.664Z,13.45
2019-03-15T09:43:38.196Z,12.88
2019-03-15T09:46:11.204Z,11.65
2019-03-15T09:48:39.759Z,10.90
2019-03-15T09:51:08.528Z,11.12
2019-03-15T09:53:37.024Z,11.00
2019-03-15T09:56:05.567Z,9.30
2019-03-15T09:58:35.427Z,9.43
2019-03-15T10:01:04.300Z,10.20
2019-03-15T10:03:33.019Z,8.40
2019-03-15T10:06:14.281Z,8.75
2019-03-15T10:08:31.696Z,7.42
2019-03-15T10:11:00.182Z,6.97
2019-03-15T10:13:28.666Z,5.95
2019-03-15T10:15:57.148Z,6.45
2019-03-15T10:18:25.586Z,6.28
2019-03-15T10:20:54.069Z,6.05
2019-03-15T10:23:22.573Z,5.05
2019-03-15T10:25:51.485Z,5.08
2019-03-15T10:28:22.744Z,4.85
2019-03-15T10:30:53.915Z,5.15
2019-03-15T10:33:22.460Z,5.50
2019-03-15T10:35:52.565Z,4.45
2019-03-15T10:38:21.850Z,4.58
2019-03-15T10:40:50.318Z,5.45
2019-03-15T10:43:20.070Z,4.90
2019-03-15T10:45:48.535Z,5.05
2019-03-15T10:48:25.405Z,5.47
2019-03-15T10:50:50.434Z,5.45
2019-03-15T10:53:18.969Z,5.42
2019-03-15T10:56:00.273Z,5.78
2019-03-15T10:58:20.605Z,5.87
2019-03-15T11:00:49.164Z,7.47
2019-03-15T11:03:18.790Z,6.92
2019-03-15T11:05:47.240Z,8.30
2019-03-15T11:08:15.811Z,8.35
2019-03-15T11:10:44.313Z,7.75
2019-03-15T11:13:12.796Z,9.05
2019-03-15T11:15:43.007Z,8.33
2019-03-15T11:18:11.468Z,8.18
2019-03-15T11:20:40.030Z,9.88
2019-03-15T11:23:08.479Z,9.98
2019-03-15T11:25:37.155Z,9.98
2019-03-15T11:28:05.622Z,11.05
2019-03-15T11:30:37.147Z,11.03
2019-03-15T11:33:05.765Z,12.75
2019-03-15T11:35:34.263Z,11.33
2019-03-15T11:38:03.101Z,12.60
2019-03-15T11:40:33.611Z,13.03
2019-03-15T11:43:01.785Z,14.20
2019-03-15T11:45:31.794Z,14.90
2019-03-15T11:48:03.946Z,14.85
2019-03-15T11:50:33.561Z,15.48
2019-03-15T11:53:02.021Z,16.02
2019-03-15T11:55:30.675Z,16.87
2019-03-15T11:57:59.221Z,15.95
2019-03-15T12:00:27.766Z,16.02
2019-03-15T12:02:57.953Z,15.72
2019-03-15T12:05:29.578Z,16.48
2019-03-15T12:07:58.207Z,17.35
2019-03-15T12:10:26.736Z,17.02
2019-03-15T12:12:55.572Z,16.73
2019-03-15T12:15:24.181Z,18.02
2019-03-15T12:17:52.923Z,18.00
2019-03-15T12:20:21.594Z,17.50
2019-03-15T12:22:50.269Z,16.00
2019-03-15T12:25:18.959Z,15.53
2019-03-15T12:27:47.419Z,14.73
2019-03-15T12:30:17.741Z,13.43
2019-03-15T12:32:46.455Z,13.98
2019-03-15T12:35:15.859Z,13.95
2019-03-15T12:37:44.374Z,14.50
2019-03-15T12:40:14.518Z,14.73
2019-03-15T12:42:43.189Z,12.20
2019-03-15T12:45:12.720Z,13.22
2019-03-15T12:47:41.271Z,11.55
2019-03-15T12:50:15.587Z,12.18
2019-03-15T12:52:48.438Z,10.80
2019-03-15T12:55:15.218Z,10.32
2019-03-15T12:57:49.307Z,9.88
2019-03-15T13:00:20.199Z,11.12
2019-03-15T13:02:50.286Z,10.55
2019-03-15T13:05:20.452Z,11.63
2019-03-15T13:07:49.058Z,10.48
2019-03-15T13:10:19.434Z,11.43
2019-03-15T13:12:48.234Z,11.12
2019-03-15T13:15:19.855Z,10.03
2019-03-15T13:17:50.079Z,11.22
2019-03-15T13:20:29.132Z,10.38
2019-03-15T13:22:56.819Z,10.30
2019-03-15T13:25:27.436Z,10.35
2019-03-15T13:27:57.658Z,9.93
2019-03-15T13:30:26.780Z,9.30
2019-03-15T13:32:57.235Z,12.98
2019-03-15T13:35:26.228Z,13.53
2019-03-15T13:38:04.733Z,13.15
2019-03-15T13:40:35.287Z,27.60
2019-03-15T13:43:04.738Z,14.80
2019-03-15T13:45:33.196Z,11.78
2019-03-15T13:48:01.812Z,12.70
2019-03-15T13:50:30.262Z,9.73
2019-03-15T13:53:00.365Z,10.68
2019-03-15T13:55:28.826Z,8.73
2019-03-15T13:57:57.358Z,8.43
2019-03-15T14:00:29.107Z,8.08
2019-03-15T14:02:58.339Z,5.00
2019-03-15T14:05:27.012Z,4.62
2019-03-15T14:07:55.803Z,7.83
2019-03-15T14:10:27.071Z,11.18
2019-03-15T14:12:55.562Z,11.73
2019-03-15T14:15:24.294Z,5.42
2019-03-15T14:17:56.119Z,4.75
2019-03-15T14:20:24.701Z,4.17
2019-03-15T14:22:55.955Z,3.15
2019-03-15T14:25:27.963Z,3.70
2019-03-15T14:27:56.648Z,3.72
2019-03-15T14:30:25.296Z,3.75
2019-03-15T14:32:53.748Z,1.90
2019-03-15T14:35:22.491Z,2.62
2019-03-15T14:37:52.667Z,2.47
2019-03-15T14:40:22.529Z,2.12
2019-03-15T14:42:55.273Z,1.87
2019-03-15T14:45:24.249Z,2.50
2019-03-15T14:47:52.766Z,2.10
2019-03-15T14:50:23.335Z,4.10
2019-03-15T14:52:53.405Z,4.90
2019-03-15T14:55:23.571Z,4.58
2019-03-15T14:57:54.997Z,4.00
2019-03-15T15:00:25.657Z,2.50
2019-03-15T15:02:55.667Z,4.42
2019-03-15T15:05:24.292Z,4.55
2019-03-15T15:07:52.821Z,4.80
2019-03-15T15:10:22.959Z,4.37
2019-03-15T15:12:53.117Z,3.90
2019-03-15T15:15:21.872Z,2.77
2019-03-15T15:17:53.326Z,2.72
2019-03-15T15:20:21.994Z,3.02
2019-03-15T15:22:50.470Z,3.20
2019-03-15T15:25:19.139Z,2.70
2019-03-15T15:27:47.797Z,3.77
2019-03-15T15:30:17.235Z,6.35
2019-03-15T15:32:45.721Z,15.93
2019-03-15T15:35:14.883Z,8.38
2019-03-15T15:37:45.523Z,5.40
2019-03-15T15:40:16.121Z,4.90
2019-03-15T15:42:45.341Z,5.60
2019-03-15T15:45:14.373Z,5.62
2019-03-15T15:47:43.011Z,4.35
2019-03-15T15:50:17.926Z,24.82
2019-03-15T15:52:48.133Z,5.30
2019-03-15T15:55:42.499Z,3.47
2019-03-15T15:58:17.866Z,6.60
2019-03-15T16:00:41.155Z,6.22
2019-03-15T16:03:09.711Z,7.58
2019-03-15T16:05:38.194Z,4.80
2019-03-15T16:08:06.827Z,8.08
2019-03-15T16:10:37.429Z,5.42
2019-03-15T16:13:16.563Z,6.03
2019-03-15T16:15:36.232Z,6.67
2019-03-15T16:18:04.786Z,4.70
2019-03-15T16:20:33.258Z,6.70
2019-03-15T16:23:04.455Z,3.87
2019-03-15T16:25:32.929Z,4.53
2019-03-15T16:28:01.409Z,4.30
2019-03-15T16:30:29.961Z,3.98
2019-03-15T16:33:03.773Z,6.22
2019-03-15T16:35:33.775Z,6.03
2019-03-15T16:38:02.463Z,8.60
2019-03-15T16:40:31.031Z,4.72
2019-03-15T16:43:06.026Z,5.85
2019-03-15T16:45:31.490Z,4.62
2019-03-15T16:48:00.052Z,16.00
2019-03-15T16:50:28.582Z,5.55
2019-03-15T16:52:57.836Z,6.00
2019-03-15T16:55:27.846Z,8.45
2019-03-15T16:57:59.338Z,5.70
2019-03-15T17:00:28.025Z,4.65
2019-03-15T17:02:56.644Z,4.12
2019-03-15T17:05:26.926Z,3.75
2019-03-15T17:07:55.397Z,6.28
2019-03-15T17:10:29.763Z,5.28
2019-03-15T17:12:58.482Z,4.40
2019-03-15T17:15:29.761Z,3.55
2019-03-15T17:17:58.325Z,3.75
2019-03-15T17:20:26.924Z,4.55
2019-03-15T17:22:55.405Z,4.17
2019-03-15T17:25:24.047Z,4.22
2019-03-15T17:27:52.542Z,9.10
2019-03-15T17:30:21.229Z,4.85
2019-03-15T17:32:49.832Z,7.80
2019-03-15T17:35:19.610Z,4.50
2019-03-15T17:37:49.352Z,4.20
2019-03-15T17:40:23.164Z,3.87
2019-03-15T17:42:51.746Z,4.70
2019-03-15T17:45:20.357Z,3.45
2019-03-15T17:47:48.904Z,4.87
2019-03-15T17:50:22.823Z,4.60
2019-03-15T17:52:51.469Z,3.90
2019-03-15T17:55:27.339Z,4.08
2019-03-15T17:57:55.722Z,3.67
2019-03-15T18:00:42.760Z,4.50
2019-03-15T18:03:20.831Z,4.08
2019-03-15T18:05:43.799Z,3.55
2019-03-15T18:08:15.194Z,4.00
2019-03-15T18:10:43.711Z,3.55
2019-03-15T18:13:12.251Z,4.50
2019-03-15T18:15:40.800Z,5.37
2019-03-15T18:18:09.359Z,4.65
2019-03-15T18:20:37.959Z,4.20
2019-03-15T18:23:10.942Z,5.05
2019-03-15T18:25:41.812Z,9.90
2019-03-15T18:28:10.813Z,5.33
2019-03-15T18:30:39.355Z,6.72
2019-03-15T18:33:07.896Z,6.40
2019-03-15T18:35:36.423Z,7.03
2019-03-15T18:38:07.704Z,8.33
2019-03-15T18:40:36.188Z,6.65
2019-03-15T18:43:04.663Z,8.10
2019-03-15T18:45:33.352Z,10.05
2019-03-15T18:48:02.321Z,4.53
2019-03-15T18:50:30.874Z,4.42
2019-03-15T18:52:59.358Z,4.60
2019-03-15T18:55:27.824Z,4.65
2019-03-15T18:57:58.732Z,5.00
2019-03-15T19:00:27.546Z,4.87
2019-03-15T19:02:56.032Z,6.62
2019-03-15T19:05:24.587Z,5.83
2019-03-15T19:07:53.029Z,6.65
2019-03-15T19:10:22.400Z,4.83
2019-03-15T19:12:53.421Z,5.58
2019-03-15T19:15:22.492Z,4.72
2019-03-15T19:17:51.086Z,3.95
2019-03-15T19:20:20.647Z,11.85
2019-03-15T19:22:49.246Z,4.67
2019-03-15T19:25:19.468Z,4.65
2019-03-15T19:27:48.055Z,5.17
2019-03-15T19:30:21.515Z,5.10
2019-03-15T19:32:50.039Z,3.70
2019-03-15T19:35:18.834Z,3.58
2019-03-15T19:37:47.385Z,8.18
2019-03-15T19:40:18.114Z,7.30
2019-03-15T19:42:46.655Z,4.62
2019-03-15T19:45:15.967Z,4.42
2019-03-15T19:47:44.524Z,4.85
2019-03-15T19:50:22.081Z,3.65
2019-03-15T19:52:50.576Z,3.92
2019-03-15T19:55:19.228Z,3.83
2019-03-15T19:57:47.766Z,4.15
2019-03-15T20:00:18.020Z,4.47
2019-03-15T20:02:46.499Z,3.90
2019-03-15T20:05:15.474Z,4.00
2019-03-15T20:07:44.132Z,4.95
2019-03-15T20:10:16.521Z,4.97
2019-03-15T20:12:44.421Z,3.87
2019-03-15T20:15:14.607Z,5.62
2019-03-15T20:17:44.716Z,4.85
2019-03-15T20:20:19.115Z,4.95
2019-03-15T20:22:47.603Z,4.17
2019-03-15T20:25:19.483Z,4.62
2019-03-15T20:27:47.967Z,4.42
2019-03-15T20:30:26.157Z,4.85
2019-03-15T20:32:51.842Z,4.85
2019-03-15T20:35:20.529Z,4.05
2019-03-15T20:37:49.056Z,4.35
2019-03-15T20:40:17.743Z,4.35
2019-03-15T20:42:46.196Z,4.03
2019-03-15T20:45:23.327Z,3.98
2019-03-15T20:47:51.794Z,4.70
2019-03-15T20:50:20.535Z,4.65
2019-03-15T20:52:49.019Z,5.37
2019-03-15T20:55:17.697Z,4.20
2019-03-15T20:57:46.261Z,4.25
2019-03-15T21:00:34.411Z,4.87
2019-03-15T21:02:50.680Z,4.08
2019-03-15T21:05:22.077Z,4.97
2019-03-15T21:07:51.018Z,4.75
2019-03-15T21:10:22.671Z,4.83
2019-03-15T21:12:51.199Z,4.30
2019-03-15T21:15:19.864Z,4.50
2019-03-15T21:17:48.328Z,4.53
2019-03-15T21:20:22.357Z,5.12
2019-03-15T21:22:51.660Z,4.35
2019-03-15T21:25:25.171Z,5.45
2019-03-15T21:27:54.750Z,4.72
2019-03-15T21:30:30.158Z,4.87
2019-03-15T21:33:02.004Z,4.08
2019-03-15T21:35:30.637Z,4.08
2019-03-15T21:37:59.269Z,4.35
2019-03-15T21:40:27.772Z,4.60
2019-03-15T21:42:56.288Z,4.65
2019-03-15T21:45:24.913Z,5.35
2019-03-15T21:47:53.859Z,4.37
2019-03-15T21:50:23.274Z,4.50
2019-03-15T21:52:51.913Z,3.95
2019-03-15T21:55:20.864Z,4.60
2019-03-15T21:57:49.315Z,5.28
2019-03-15T22:00:18.917Z,5.47
2019-03-15T22:02:47.449Z,3.92
2019-03-15T22:05:16.196Z,4.35
2019-03-15T22:07:46.222Z,4.70
2019-03-15T22:10:15.789Z,4.75
2019-03-15T22:12:44.382Z,4.97
2019-03-15T22:15:16.112Z,5.00
2019-03-15T22:17:44.875Z,4.53
2019-03-15T22:20:14.826Z,5.08
2019-03-15T22:22:43.500Z,3.95
2019-03-15T22:25:12.330Z,5.25
2019-03-15T22:27:41.323Z,4.65
2019-03-15T22:30:12.103Z,4.17
2019-03-15T22:32:41.610Z,5.25
2019-03-15T22:35:10.558Z,4.58
2019-03-15T22:37:39.040Z,4.50
2019-03-15T22:40:09.960Z,4.67
2019-03-15T22:42:38.556Z,4.90
2019-03-15T22:45:09.761Z,4.97
2019-03-15T22:47:40.026Z,4.45
2019-03-15T22:50:10.022Z,4.22
2019-03-15T22:52:38.584Z,5.55
2019-03-15T22:55:11.405Z,4.95
2019-03-15T22:57:40.169Z,5.67
2019-03-15T23:00:17.903Z,4.75
2019-03-15T23:02:46.561Z,4.62
2019-03-15T23:05:15.271Z,4.75
2019-03-15T23:07:43.817Z,5.22
2019-03-15T23:10:14.122Z,4.42
2019-03-15T23:12:42.599Z,4.30
2019-03-15T23:15:12.695Z,4.92
2019-03-15T23:17:42.213Z,4.42
2019-03-15T23:20:14.365Z,4.87
2019-03-15T23:22:42.858Z,5.17
2019-03-15T23:25:13.379Z,4.97
2019-03-15T23:27:41.867Z,4.28
2019-03-15T23:30:13.029Z,4.80
2019-03-15T23:32:41.774Z,4.90
2019-03-15T23:35:10.417Z,4.53
2019-03-15T23:37:39.091Z,4.70
2019-03-15T23:40:12.237Z,4.72
2019-03-15T23:42:42.373Z,4.72
2019-03-15T23:45:11.611Z,4.50
2019-03-15T23:47:40.226Z,4.50
2019-03-15T23:50:11.424Z,3.80
2019-03-15T23:52:40.653Z,4.62
2019-03-15T23:55:09.311Z,4.67
2019-03-15T23:57:38.729Z,4.25
